sensor_id;sensor_type;location;lat;lon;timestamp;P1;durP1;ratioP1;P2;durP2;ratioP2
20090;SDS011;10205;49.678;6.560;2023-09-18T00:00:56;2.78;;;2.17;;
20090;SDS011;10205;49.678;6.560;2023-09-18T00:03:23;2.00;;;1.80;;
20090;SDS011;10205;49.678;6.560;2023-09-18T00:05:52;2.75;;;2.15;;
20090;SDS011;10205;49.678;6.560;2023-09-18T00:08:19;2.88;;;2.17;;
20090;SDS011;10205;49.678;6.560;2023-09-18T00:10:46;5.18;;;2.38;;
20090;SDS011;10205;49.678;6.560;2023-09-18T00:13:16;4.90;;;2.58;;
20090;SDS011;10205;49.678;6.560;2023-09-18T00:15:46;4.63;;;2.10;;
20090;SDS011;10205;49.678;6.560;2023-09-18T00:18:14;4.00;;;2.30;;
20090;SDS011;10205;49.678;6.560;2023-09-18T00:20:42;4.65;;;2.20;;
20090;SDS011;10205;49.678;6.560;2023-09-18T00:23:12;3.45;;;2.33;;
20090;SDS011;10205;49.678;6.560;2023-09-18T00:25:40;3.05;;;2.05;;
20090;SDS011;10205;49.678;6.560;2023-09-18T00:28:07;4.68;;;2.70;;
20090;SDS011;10205;49.678;6.560;2023-09-18T00:30:37;3.25;;;2.20;;
20090;SDS011;10205;49.678;6.560;2023-09-18T00:33:09;4.45;;;1.98;;
20090;SDS011;10205;49.678;6.560;2023-09-18T00:35:36;6.47;;;3.03;;
20090;SDS011;10205;49.678;6.560;2023-09-18T00:38:03;3.95;;;2.20;;
20090;SDS011;10205;49.678;6.560;2023-09-18T00:40:33;2.67;;;1.90;;
20090;SDS011;10205;49.678;6.560;2023-09-18T00:43:01;5.70;;;2.67;;
20090;SDS011;10205;49.678;6.560;2023-09-18T00:45:28;6.20;;;2.60;;
20090;SDS011;10205;49.678;6.560;2023-09-18T00:47:56;8.90;;;2.72;;
20090;SDS011;10205;49.678;6.560;2023-09-18T00:50:23;6.45;;;2.63;;
20090;SDS011;10205;49.678;6.560;2023-09-18T00:52:51;7.13;;;2.90;;
20090;SDS011;10205;49.678;6.560;2023-09-18T00:55:19;4.40;;;2.25;;
20090;SDS011;10205;49.678;6.560;2023-09-18T00:57:48;6.43;;;2.58;;
20090;SDS011;10205;49.678;6.560;2023-09-18T01:00:15;5.22;;;2.13;;
20090;SDS011;10205;49.678;6.560;2023-09-18T01:02:43;4.30;;;2.70;;
20090;SDS011;10205;49.678;6.560;2023-09-18T01:05:11;4.85;;;2.42;;
20090;SDS011;10205;49.678;6.560;2023-09-18T01:07:39;8.55;;;2.80;;
20090;SDS011;10205;49.678;6.560;2023-09-18T01:10:06;3.65;;;2.65;;
20090;SDS011;10205;49.678;6.560;2023-09-18T01:12:36;5.82;;;3.00;;
20090;SDS011;10205;49.678;6.560;2023-09-18T01:15:14;6.30;;;2.75;;
20090;SDS011;10205;49.678;6.560;2023-09-18T01:17:49;2.95;;;2.45;;
20090;SDS011;10205;49.678;6.560;2023-09-18T01:20:16;4.45;;;2.80;;
20090;SDS011;10205;49.678;6.560;2023-09-18T01:22:45;4.45;;;2.55;;
20090;SDS011;10205;49.678;6.560;2023-09-18T01:25:14;3.45;;;2.45;;
20090;SDS011;10205;49.678;6.560;2023-09-18T01:27:42;3.55;;;2.88;;
20090;SDS011;10205;49.678;6.560;2023-09-18T01:30:09;7.03;;;2.95;;
20090;SDS011;10205;49.678;6.560;2023-09-18T01:32:38;6.38;;;3.10;;
20090;SDS011;10205;49.678;6.560;2023-09-18T01:35:07;5.35;;;2.55;;
20090;SDS011;10205;49.678;6.560;2023-09-18T01:37:37;5.55;;;3.13;;
20090;SDS011;10205;49.678;6.560;2023-09-18T01:40:08;4.10;;;2.42;;
20090;SDS011;10205;49.678;6.560;2023-09-18T01:42:36;5.60;;;3.00;;
20090;SDS011;10205;49.678;6.560;2023-09-18T01:45:04;7.70;;;2.90;;
20090;SDS011;10205;49.678;6.560;2023-09-18T01:47:32;5.18;;;2.50;;
20090;SDS011;10205;49.678;6.560;2023-09-18T01:50:02;5.40;;;2.47;;
20090;SDS011;10205;49.678;6.560;2023-09-18T01:52:31;4.15;;;2.88;;
20090;SDS011;10205;49.678;6.560;2023-09-18T01:54:59;4.88;;;2.35;;
20090;SDS011;10205;49.678;6.560;2023-09-18T01:57:28;3.95;;;2.55;;
20090;SDS011;10205;49.678;6.560;2023-09-18T01:59:55;4.43;;;2.33;;
20090;SDS011;10205;49.678;6.560;2023-09-18T02:02:22;5.63;;;2.30;;
20090;SDS011;10205;49.678;6.560;2023-09-18T02:04:50;3.75;;;2.58;;
20090;SDS011;10205;49.678;6.560;2023-09-18T02:07:17;7.88;;;2.95;;
20090;SDS011;10205;49.678;6.560;2023-09-18T02:09:44;5.35;;;2.65;;
20090;SDS011;10205;49.678;6.560;2023-09-18T02:12:11;5.05;;;2.53;;
20090;SDS011;10205;49.678;6.560;2023-09-18T02:14:44;4.13;;;2.53;;
20090;SDS011;10205;49.678;6.560;2023-09-18T02:17:11;3.53;;;2.33;;
20090;SDS011;10205;49.678;6.560;2023-09-18T02:19:38;3.83;;;2.50;;
20090;SDS011;10205;49.678;6.560;2023-09-18T02:22:05;4.38;;;2.40;;
20090;SDS011;10205;49.678;6.560;2023-09-18T02:24:32;5.13;;;2.38;;
20090;SDS011;10205;49.678;6.560;2023-09-18T02:26:59;4.20;;;2.22;;
20090;SDS011;10205;49.678;6.560;2023-09-18T02:29:26;4.03;;;2.47;;
20090;SDS011;10205;49.678;6.560;2023-09-18T02:31:55;4.28;;;2.60;;
20090;SDS011;10205;49.678;6.560;2023-09-18T02:34:22;3.65;;;2.38;;
20090;SDS011;10205;49.678;6.560;2023-09-18T02:36:49;6.82;;;2.42;;
20090;SDS011;10205;49.678;6.560;2023-09-18T02:39:16;5.90;;;2.63;;
20090;SDS011;10205;49.678;6.560;2023-09-18T02:41:45;4.85;;;2.88;;
20090;SDS011;10205;49.678;6.560;2023-09-18T02:44:12;7.72;;;2.80;;
20090;SDS011;10205;49.678;6.560;2023-09-18T02:46:40;3.20;;;1.92;;
20090;SDS011;10205;49.678;6.560;2023-09-18T02:49:10;4.90;;;2.20;;
20090;SDS011;10205;49.678;6.560;2023-09-18T02:51:37;5.65;;;2.38;;
20090;SDS011;10205;49.678;6.560;2023-09-18T02:54:04;3.15;;;2.17;;
20090;SDS011;10205;49.678;6.560;2023-09-18T02:56:32;4.78;;;2.35;;
20090;SDS011;10205;49.678;6.560;2023-09-18T02:58:59;8.30;;;2.88;;
20090;SDS011;10205;49.678;6.560;2023-09-18T03:01:26;3.95;;;2.05;;
20090;SDS011;10205;49.678;6.560;2023-09-18T03:03:53;4.65;;;2.38;;
20090;SDS011;10205;49.678;6.560;2023-09-18T03:06:21;7.47;;;2.28;;
20090;SDS011;10205;49.678;6.560;2023-09-18T03:08:48;3.55;;;2.28;;
20090;SDS011;10205;49.678;6.560;2023-09-18T03:11:15;3.58;;;1.98;;
20090;SDS011;10205;49.678;6.560;2023-09-18T03:13:43;4.45;;;2.25;;
20090;SDS011;10205;49.678;6.560;2023-09-18T03:16:11;3.10;;;2.00;;
20090;SDS011;10205;49.678;6.560;2023-09-18T03:18:38;3.38;;;2.15;;
20090;SDS011;10205;49.678;6.560;2023-09-18T03:21:06;5.60;;;2.22;;
20090;SDS011;10205;49.678;6.560;2023-09-18T03:23:34;3.10;;;1.85;;
20090;SDS011;10205;49.678;6.560;2023-09-18T03:26:02;3.95;;;2.00;;
20090;SDS011;10205;49.678;6.560;2023-09-18T03:28:29;4.03;;;2.00;;
20090;SDS011;10205;49.678;6.560;2023-09-18T03:30:57;3.42;;;1.80;;
20090;SDS011;10205;49.678;6.560;2023-09-18T03:33:24;5.15;;;1.90;;
20090;SDS011;10205;49.678;6.560;2023-09-18T03:35:52;2.20;;;1.73;;
20090;SDS011;10205;49.678;6.560;2023-09-18T03:38:23;3.55;;;1.58;;
20090;SDS011;10205;49.678;6.560;2023-09-18T03:40:52;2.50;;;2.10;;
20090;SDS011;10205;49.678;6.560;2023-09-18T03:43:19;2.28;;;1.70;;
20090;SDS011;10205;49.678;6.560;2023-09-18T03:45:46;3.15;;;1.92;;
20090;SDS011;10205;49.678;6.560;2023-09-18T03:48:13;4.03;;;1.90;;
20090;SDS011;10205;49.678;6.560;2023-09-18T03:50:40;1.88;;;1.63;;
20090;SDS011;10205;49.678;6.560;2023-09-18T03:53:08;2.97;;;1.40;;
20090;SDS011;10205;49.678;6.560;2023-09-18T03:55:35;4.63;;;1.92;;
20090;SDS011;10205;49.678;6.560;2023-09-18T03:58:04;8.30;;;1.95;;
20090;SDS011;10205;49.678;6.560;2023-09-18T04:00:31;3.10;;;1.65;;
20090;SDS011;10205;49.678;6.560;2023-09-18T04:02:58;2.70;;;1.80;;
20090;SDS011;10205;49.678;6.560;2023-09-18T04:05:26;3.58;;;1.70;;
20090;SDS011;10205;49.678;6.560;2023-09-18T04:07:53;5.00;;;1.88;;
20090;SDS011;10205;49.678;6.560;2023-09-18T04:10:20;2.67;;;1.52;;
20090;SDS011;10205;49.678;6.560;2023-09-18T04:12:48;1.92;;;1.73;;
20090;SDS011;10205;49.678;6.560;2023-09-18T04:15:18;3.60;;;1.63;;
20090;SDS011;10205;49.678;6.560;2023-09-18T04:17:47;3.25;;;2.05;;
20090;SDS011;10205;49.678;6.560;2023-09-18T04:20:14;2.67;;;1.55;;
20090;SDS011;10205;49.678;6.560;2023-09-18T04:22:42;2.58;;;1.60;;
20090;SDS011;10205;49.678;6.560;2023-09-18T04:25:14;3.20;;;1.55;;
20090;SDS011;10205;49.678;6.560;2023-09-18T04:27:42;2.58;;;1.65;;
20090;SDS011;10205;49.678;6.560;2023-09-18T04:30:09;5.18;;;1.88;;
20090;SDS011;10205;49.678;6.560;2023-09-18T04:32:39;3.88;;;1.60;;
20090;SDS011;10205;49.678;6.560;2023-09-18T04:35:08;1.83;;;1.30;;
20090;SDS011;10205;49.678;6.560;2023-09-18T04:37:36;5.05;;;1.45;;
20090;SDS011;10205;49.678;6.560;2023-09-18T04:40:05;2.25;;;1.30;;
20090;SDS011;10205;49.678;6.560;2023-09-18T04:42:36;2.83;;;1.27;;
20090;SDS011;10205;49.678;6.560;2023-09-18T04:45:05;2.75;;;1.50;;
20090;SDS011;10205;49.678;6.560;2023-09-18T04:47:35;3.10;;;1.55;;
20090;SDS011;10205;49.678;6.560;2023-09-18T04:50:04;4.03;;;1.40;;
20090;SDS011;10205;49.678;6.560;2023-09-18T04:52:34;3.38;;;1.60;;
20090;SDS011;10205;49.678;6.560;2023-09-18T04:55:01;2.03;;;1.40;;
20090;SDS011;10205;49.678;6.560;2023-09-18T04:57:31;1.52;;;1.27;;
20090;SDS011;10205;49.678;6.560;2023-09-18T04:59:59;3.40;;;1.30;;
20090;SDS011;10205;49.678;6.560;2023-09-18T05:02:26;1.55;;;1.25;;
20090;SDS011;10205;49.678;6.560;2023-09-18T05:04:55;3.83;;;1.35;;
20090;SDS011;10205;49.678;6.560;2023-09-18T05:07:24;3.85;;;1.27;;
20090;SDS011;10205;49.678;6.560;2023-09-18T05:09:51;5.82;;;1.40;;
20090;SDS011;10205;49.678;6.560;2023-09-18T05:12:18;2.35;;;1.10;;
20090;SDS011;10205;49.678;6.560;2023-09-18T05:14:48;1.88;;;1.00;;
20090;SDS011;10205;49.678;6.560;2023-09-18T05:17:16;2.15;;;1.20;;
20090;SDS011;10205;49.678;6.560;2023-09-18T05:19:44;3.25;;;1.20;;
20090;SDS011;10205;49.678;6.560;2023-09-18T05:22:11;4.10;;;1.08;;
20090;SDS011;10205;49.678;6.560;2023-09-18T05:24:40;6.30;;;1.15;;
20090;SDS011;10205;49.678;6.560;2023-09-18T05:27:07;1.52;;;0.90;;
20090;SDS011;10205;49.678;6.560;2023-09-18T05:29:35;2.05;;;1.02;;
20090;SDS011;10205;49.678;6.560;2023-09-18T05:32:02;6.80;;;1.15;;
20090;SDS011;10205;49.678;6.560;2023-09-18T05:34:30;3.15;;;1.30;;
20090;SDS011;10205;49.678;6.560;2023-09-18T05:36:57;1.73;;;0.98;;
20090;SDS011;10205;49.678;6.560;2023-09-18T05:39:24;3.42;;;1.10;;
20090;SDS011;10205;49.678;6.560;2023-09-18T05:41:52;2.58;;;1.30;;
20090;SDS011;10205;49.678;6.560;2023-09-18T05:44:20;2.47;;;0.98;;
20090;SDS011;10205;49.678;6.560;2023-09-18T05:46:50;1.98;;;1.27;;
20090;SDS011;10205;49.678;6.560;2023-09-18T05:49:17;3.55;;;1.23;;
20090;SDS011;10205;49.678;6.560;2023-09-18T05:51:44;1.40;;;0.90;;
20090;SDS011;10205;49.678;6.560;2023-09-18T05:54:12;2.80;;;0.95;;
20090;SDS011;10205;49.678;6.560;2023-09-18T05:56:39;1.77;;;1.10;;
20090;SDS011;10205;49.678;6.560;2023-09-18T05:59:08;2.22;;;1.10;;
20090;SDS011;10205;49.678;6.560;2023-09-18T06:01:35;1.80;;;0.95;;
20090;SDS011;10205;49.678;6.560;2023-09-18T06:04:03;3.30;;;1.15;;
20090;SDS011;10205;49.678;6.560;2023-09-18T06:06:31;1.85;;;1.40;;
20090;SDS011;10205;49.678;6.560;2023-09-18T06:08:58;3.30;;;1.00;;
20090;SDS011;10205;49.678;6.560;2023-09-18T06:11:25;2.95;;;1.00;;
20090;SDS011;10205;49.678;6.560;2023-09-18T06:13:52;3.53;;;1.00;;
20090;SDS011;10205;49.678;6.560;2023-09-18T06:16:21;1.75;;;0.77;;
20090;SDS011;10205;49.678;6.560;2023-09-18T06:18:48;4.22;;;0.80;;
20090;SDS011;10205;49.678;6.560;2023-09-18T06:21:15;3.45;;;0.80;;
20090;SDS011;10205;49.678;6.560;2023-09-18T06:23:42;2.38;;;1.13;;
20090;SDS011;10205;49.678;6.560;2023-09-18T06:26:09;2.63;;;0.95;;
20090;SDS011;10205;49.678;6.560;2023-09-18T06:28:36;2.00;;;0.98;;
20090;SDS011;10205;49.678;6.560;2023-09-18T06:31:04;2.97;;;1.10;;
20090;SDS011;10205;49.678;6.560;2023-09-18T06:33:32;1.98;;;0.90;;
20090;SDS011;10205;49.678;6.560;2023-09-18T06:35:59;3.33;;;0.90;;
20090;SDS011;10205;49.678;6.560;2023-09-18T06:38:27;1.33;;;0.90;;
20090;SDS011;10205;49.678;6.560;2023-09-18T06:40:54;1.52;;;1.02;;
20090;SDS011;10205;49.678;6.560;2023-09-18T06:43:21;1.17;;;0.75;;
20090;SDS011;10205;49.678;6.560;2023-09-18T06:45:48;1.42;;;0.95;;
20090;SDS011;10205;49.678;6.560;2023-09-18T06:48:15;1.20;;;0.82;;
20090;SDS011;10205;49.678;6.560;2023-09-18T06:50:44;1.33;;;0.85;;
20090;SDS011;10205;49.678;6.560;2023-09-18T06:53:11;2.83;;;1.23;;
20090;SDS011;10205;49.678;6.560;2023-09-18T06:55:38;2.72;;;1.02;;
20090;SDS011;10205;49.678;6.560;2023-09-18T06:58:06;2.45;;;0.90;;
20090;SDS011;10205;49.678;6.560;2023-09-18T07:00:33;2.40;;;1.00;;
20090;SDS011;10205;49.678;6.560;2023-09-18T07:03:00;1.73;;;0.80;;
20090;SDS011;10205;49.678;6.560;2023-09-18T07:05:27;1.83;;;0.80;;
20090;SDS011;10205;49.678;6.560;2023-09-18T07:07:55;2.95;;;0.68;;
20090;SDS011;10205;49.678;6.560;2023-09-18T07:10:23;1.25;;;1.10;;
20090;SDS011;10205;49.678;6.560;2023-09-18T07:12:50;2.33;;;1.13;;
20090;SDS011;10205;49.678;6.560;2023-09-18T07:15:17;1.17;;;0.77;;
20090;SDS011;10205;49.678;6.560;2023-09-18T07:17:44;3.80;;;0.80;;
20090;SDS011;10205;49.678;6.560;2023-09-18T07:20:13;2.25;;;1.02;;
20090;SDS011;10205;49.678;6.560;2023-09-18T07:22:40;2.83;;;1.00;;
20090;SDS011;10205;49.678;6.560;2023-09-18T07:25:14;2.15;;;1.00;;
20090;SDS011;10205;49.678;6.560;2023-09-18T07:27:41;2.35;;;1.02;;
20090;SDS011;10205;49.678;6.560;2023-09-18T07:30:10;2.78;;;0.90;;
20090;SDS011;10205;49.678;6.560;2023-09-18T07:32:41;3.85;;;0.88;;
20090;SDS011;10205;49.678;6.560;2023-09-18T07:35:08;2.63;;;0.88;;
20090;SDS011;10205;49.678;6.560;2023-09-18T07:37:36;3.65;;;1.35;;
20090;SDS011;10205;49.678;6.560;2023-09-18T07:40:04;1.67;;;1.10;;
20090;SDS011;10205;49.678;6.560;2023-09-18T07:42:34;2.08;;;0.70;;
20090;SDS011;10205;49.678;6.560;2023-09-18T07:45:01;3.30;;;1.00;;
20090;SDS011;10205;49.678;6.560;2023-09-18T07:47:28;2.65;;;0.85;;
20090;SDS011;10205;49.678;6.560;2023-09-18T07:49:57;2.78;;;0.75;;
20090;SDS011;10205;49.678;6.560;2023-09-18T07:52:24;2.05;;;0.75;;
20090;SDS011;10205;49.678;6.560;2023-09-18T07:54:51;2.13;;;1.10;;
20090;SDS011;10205;49.678;6.560;2023-09-18T07:57:18;2.80;;;1.10;;
20090;SDS011;10205;49.678;6.560;2023-09-18T07:59:49;2.40;;;0.95;;
20090;SDS011;10205;49.678;6.560;2023-09-18T08:02:17;2.78;;;1.10;;
20090;SDS011;10205;49.678;6.560;2023-09-18T08:04:44;1.92;;;0.70;;
20090;SDS011;10205;49.678;6.560;2023-09-18T08:07:11;1.20;;;0.98;;
20090;SDS011;10205;49.678;6.560;2023-09-18T08:09:38;1.50;;;0.90;;
20090;SDS011;10205;49.678;6.560;2023-09-18T08:12:06;2.80;;;1.10;;
20090;SDS011;10205;49.678;6.560;2023-09-18T08:14:35;1.40;;;0.80;;
20090;SDS011;10205;49.678;6.560;2023-09-18T08:17:04;2.22;;;1.00;;
20090;SDS011;10205;49.678;6.560;2023-09-18T08:19:32;3.83;;;0.93;;
20090;SDS011;10205;49.678;6.560;2023-09-18T08:22:00;1.95;;;1.00;;
20090;SDS011;10205;49.678;6.560;2023-09-18T08:24:29;1.95;;;0.80;;
20090;SDS011;10205;49.678;6.560;2023-09-18T08:26:56;2.30;;;1.00;;
20090;SDS011;10205;49.678;6.560;2023-09-18T08:29:25;1.15;;;0.80;;
20090;SDS011;10205;49.678;6.560;2023-09-18T08:31:52;2.60;;;1.10;;
20090;SDS011;10205;49.678;6.560;2023-09-18T08:34:21;2.45;;;1.10;;
20090;SDS011;10205;49.678;6.560;2023-09-18T08:36:48;1.55;;;0.77;;
20090;SDS011;10205;49.678;6.560;2023-09-18T08:39:15;2.35;;;0.85;;
20090;SDS011;10205;49.678;6.560;2023-09-18T08:41:43;0.95;;;0.70;;
20090;SDS011;10205;49.678;6.560;2023-09-18T08:44:14;1.63;;;1.00;;
20090;SDS011;10205;49.678;6.560;2023-09-18T08:46:42;1.42;;;0.90;;
20090;SDS011;10205;49.678;6.560;2023-09-18T08:49:10;1.85;;;0.85;;
20090;SDS011;10205;49.678;6.560;2023-09-18T08:51:39;1.00;;;0.70;;
20090;SDS011;10205;49.678;6.560;2023-09-18T08:54:10;2.03;;;1.10;;
20090;SDS011;10205;49.678;6.560;2023-09-18T08:56:38;2.17;;;0.98;;
20090;SDS011;10205;49.678;6.560;2023-09-18T08:59:05;2.45;;;0.82;;
20090;SDS011;10205;49.678;6.560;2023-09-18T09:01:33;1.13;;;0.70;;
20090;SDS011;10205;49.678;6.560;2023-09-18T09:04:00;0.75;;;0.75;;
20090;SDS011;10205;49.678;6.560;2023-09-18T09:06:27;5.60;;;1.38;;
20090;SDS011;10205;49.678;6.560;2023-09-18T09:08:55;1.25;;;0.82;;
20090;SDS011;10205;49.678;6.560;2023-09-18T09:11:22;1.65;;;0.90;;
20090;SDS011;10205;49.678;6.560;2023-09-18T09:13:53;1.67;;;1.00;;
20090;SDS011;10205;49.678;6.560;2023-09-18T09:16:46;1.17;;;0.90;;
20090;SDS011;10205;49.678;6.560;2023-09-18T09:19:15;2.47;;;1.20;;
20090;SDS011;10205;49.678;6.560;2023-09-18T09:21:43;2.13;;;0.90;;
20090;SDS011;10205;49.678;6.560;2023-09-18T09:24:13;1.80;;;0.77;;
20090;SDS011;10205;49.678;6.560;2023-09-18T09:26:40;2.67;;;1.20;;
20090;SDS011;10205;49.678;6.560;2023-09-18T09:29:14;2.30;;;1.20;;
20090;SDS011;10205;49.678;6.560;2023-09-18T09:31:44;1.73;;;0.80;;
20090;SDS011;10205;49.678;6.560;2023-09-18T09:34:11;4.05;;;1.13;;
20090;SDS011;10205;49.678;6.560;2023-09-18T09:36:52;2.22;;;1.23;;
20090;SDS011;10205;49.678;6.560;2023-09-18T09:39:22;2.60;;;1.10;;
20090;SDS011;10205;49.678;6.560;2023-09-18T09:41:51;3.38;;;0.98;;
20090;SDS011;10205;49.678;6.560;2023-09-18T09:44:18;3.70;;;0.80;;
20090;SDS011;10205;49.678;6.560;2023-09-18T09:46:46;2.92;;;0.70;;
20090;SDS011;10205;49.678;6.560;2023-09-18T09:49:14;1.33;;;0.98;;
20090;SDS011;10205;49.678;6.560;2023-09-18T09:51:42;1.63;;;1.20;;
20090;SDS011;10205;49.678;6.560;2023-09-18T09:54:09;2.33;;;1.10;;
20090;SDS011;10205;49.678;6.560;2023-09-18T09:56:42;3.03;;;1.20;;
20090;SDS011;10205;49.678;6.560;2023-09-18T09:59:12;1.73;;;0.95;;
20090;SDS011;10205;49.678;6.560;2023-09-18T10:01:42;2.58;;;0.90;;
20090;SDS011;10205;49.678;6.560;2023-09-18T10:04:15;3.25;;;1.10;;
20090;SDS011;10205;49.678;6.560;2023-09-18T10:06:45;2.95;;;0.90;;
20090;SDS011;10205;49.678;6.560;2023-09-18T10:09:19;1.35;;;1.00;;
20090;SDS011;10205;49.678;6.560;2023-09-18T10:11:51;2.92;;;1.00;;
20090;SDS011;10205;49.678;6.560;2023-09-18T10:14:26;1.40;;;1.00;;
20090;SDS011;10205;49.678;6.560;2023-09-18T10:16:59;2.25;;;0.95;;
20090;SDS011;10205;49.678;6.560;2023-09-18T10:19:38;2.65;;;1.10;;
20090;SDS011;10205;49.678;6.560;2023-09-18T10:22:15;3.63;;;1.00;;
20090;SDS011;10205;49.678;6.560;2023-09-18T10:24:54;1.27;;;1.00;;
20090;SDS011;10205;49.678;6.560;2023-09-18T10:27:31;1.60;;;1.00;;
20090;SDS011;10205;49.678;6.560;2023-09-18T10:29:59;1.38;;;1.00;;
20090;SDS011;10205;49.678;6.560;2023-09-18T10:32:30;2.15;;;1.15;;
20090;SDS011;10205;49.678;6.560;2023-09-18T10:34:59;2.70;;;1.10;;
20090;SDS011;10205;49.678;6.560;2023-09-18T10:37:26;5.07;;;1.33;;
20090;SDS011;10205;49.678;6.560;2023-09-18T10:39:56;3.40;;;1.20;;
20090;SDS011;10205;49.678;6.560;2023-09-18T10:42:27;4.38;;;1.25;;
20090;SDS011;10205;49.678;6.560;2023-09-18T10:44:57;3.42;;;1.13;;
20090;SDS011;10205;49.678;6.560;2023-09-18T10:47:24;2.97;;;1.25;;
20090;SDS011;10205;49.678;6.560;2023-09-18T10:49:52;3.25;;;1.40;;
20090;SDS011;10205;49.678;6.560;2023-09-18T10:52:20;2.17;;;1.50;;
20090;SDS011;10205;49.678;6.560;2023-09-18T10:54:47;5.15;;;1.23;;
20090;SDS011;10205;49.678;6.560;2023-09-18T10:57:15;2.97;;;1.20;;
20090;SDS011;10205;49.678;6.560;2023-09-18T10:59:45;7.38;;;1.58;;
20090;SDS011;10205;49.678;6.560;2023-09-18T11:02:15;2.35;;;1.25;;
20090;SDS011;10205;49.678;6.560;2023-09-18T11:04:44;5.38;;;1.30;;
20090;SDS011;10205;49.678;6.560;2023-09-18T11:07:19;3.40;;;1.42;;
20090;SDS011;10205;49.678;6.560;2023-09-18T11:09:48;3.05;;;1.25;;
20090;SDS011;10205;49.678;6.560;2023-09-18T11:12:16;2.58;;;1.33;;
20090;SDS011;10205;49.678;6.560;2023-09-18T11:14:44;5.00;;;1.77;;
20090;SDS011;10205;49.678;6.560;2023-09-18T11:17:32;7.22;;;1.40;;
20090;SDS011;10205;49.678;6.560;2023-09-18T11:20:02;3.63;;;1.65;;
20090;SDS011;10205;49.678;6.560;2023-09-18T11:22:37;2.40;;;1.38;;
20090;SDS011;10205;49.678;6.560;2023-09-18T11:28:05;2.40;;;1.20;;
20090;SDS011;10205;49.678;6.560;2023-09-18T11:30:34;3.80;;;1.30;;
20090;SDS011;10205;49.678;6.560;2023-09-18T11:33:05;2.97;;;1.50;;
20090;SDS011;10205;49.678;6.560;2023-09-18T11:35:34;1.83;;;1.10;;
20090;SDS011;10205;49.678;6.560;2023-09-18T11:38:03;1.50;;;1.10;;
20090;SDS011;10205;49.678;6.560;2023-09-18T11:40:32;3.95;;;1.48;;
20090;SDS011;10205;49.678;6.560;2023-09-18T11:43:20;2.25;;;1.35;;
20090;SDS011;10205;49.678;6.560;2023-09-18T11:45:55;2.05;;;1.00;;
20090;SDS011;10205;49.678;6.560;2023-09-18T11:48:26;1.80;;;1.27;;
20090;SDS011;10205;49.678;6.560;2023-09-18T11:50:55;1.58;;;1.10;;
20090;SDS011;10205;49.678;6.560;2023-09-18T11:53:24;3.80;;;1.52;;
20090;SDS011;10205;49.678;6.560;2023-09-18T11:55:54;2.20;;;1.38;;
20090;SDS011;10205;49.678;6.560;2023-09-18T11:58:22;2.42;;;1.35;;
20090;SDS011;10205;49.678;6.560;2023-09-18T12:00:49;2.00;;;1.20;;
20090;SDS011;10205;49.678;6.560;2023-09-18T12:03:20;2.53;;;1.20;;
20090;SDS011;10205;49.678;6.560;2023-09-18T12:05:55;2.42;;;1.20;;
20090;SDS011;10205;49.678;6.560;2023-09-18T12:08:25;1.70;;;1.10;;
20090;SDS011;10205;49.678;6.560;2023-09-18T12:10:53;1.65;;;1.00;;
20090;SDS011;10205;49.678;6.560;2023-09-18T12:13:21;2.13;;;1.13;;
20090;SDS011;10205;49.678;6.560;2023-09-18T12:15:52;2.33;;;1.30;;
20090;SDS011;10205;49.678;6.560;2023-09-18T12:18:24;1.60;;;1.30;;
20090;SDS011;10205;49.678;6.560;2023-09-18T12:20:55;1.20;;;1.10;;
20090;SDS011;10205;49.678;6.560;2023-09-18T12:23:24;3.10;;;1.30;;
20090;SDS011;10205;49.678;6.560;2023-09-18T12:25:56;2.33;;;1.35;;
20090;SDS011;10205;49.678;6.560;2023-09-18T12:28:26;1.92;;;1.20;;
20090;SDS011;10205;49.678;6.560;2023-09-18T12:30:54;4.30;;;1.40;;
20090;SDS011;10205;49.678;6.560;2023-09-18T12:33:23;1.15;;;1.05;;
20090;SDS011;10205;49.678;6.560;2023-09-18T12:35:51;3.30;;;1.38;;
20090;SDS011;10205;49.678;6.560;2023-09-18T12:38:21;2.35;;;1.20;;
20090;SDS011;10205;49.678;6.560;2023-09-18T12:40:52;2.50;;;1.50;;
20090;SDS011;10205;49.678;6.560;2023-09-18T12:43:20;2.47;;;1.55;;
20090;SDS011;10205;49.678;6.560;2023-09-18T12:45:49;2.05;;;1.30;;
20090;SDS011;10205;49.678;6.560;2023-09-18T12:48:18;2.05;;;1.23;;
20090;SDS011;10205;49.678;6.560;2023-09-18T12:50:45;1.67;;;1.20;;
20090;SDS011;10205;49.678;6.560;2023-09-18T12:53:21;1.38;;;0.80;;
20090;SDS011;10205;49.678;6.560;2023-09-18T12:55:49;1.67;;;1.17;;
20090;SDS011;10205;49.678;6.560;2023-09-18T12:58:18;3.05;;;1.27;;
20090;SDS011;10205;49.678;6.560;2023-09-18T13:00:47;1.83;;;1.23;;
20090;SDS011;10205;49.678;6.560;2023-09-18T13:03:16;2.00;;;1.23;;
20090;SDS011;10205;49.678;6.560;2023-09-18T13:05:43;1.30;;;1.20;;
20090;SDS011;10205;49.678;6.560;2023-09-18T13:08:12;2.05;;;1.20;;
20090;SDS011;10205;49.678;6.560;2023-09-18T13:10:47;4.07;;;1.70;;
20090;SDS011;10205;49.678;6.560;2023-09-18T13:13:16;2.03;;;1.30;;
20090;SDS011;10205;49.678;6.560;2023-09-18T13:15:44;2.42;;;1.38;;
20090;SDS011;10205;49.678;6.560;2023-09-18T13:18:13;2.00;;;1.40;;
20090;SDS011;10205;49.678;6.560;2023-09-18T13:20:42;4.07;;;1.55;;
20090;SDS011;10205;49.678;6.560;2023-09-18T13:23:10;1.13;;;0.88;;
20090;SDS011;10205;49.678;6.560;2023-09-18T13:25:38;2.40;;;1.50;;
20090;SDS011;10205;49.678;6.560;2023-09-18T13:28:10;1.30;;;1.20;;
20090;SDS011;10205;49.678;6.560;2023-09-18T13:30:39;1.05;;;0.93;;
20090;SDS011;10205;49.678;6.560;2023-09-18T13:33:09;1.95;;;1.48;;
20090;SDS011;10205;49.678;6.560;2023-09-18T13:35:38;3.42;;;1.35;;
20090;SDS011;10205;49.678;6.560;2023-09-18T13:38:08;2.25;;;1.30;;
20090;SDS011;10205;49.678;6.560;2023-09-18T13:40:36;2.08;;;1.20;;
20090;SDS011;10205;49.678;6.560;2023-09-18T13:43:05;1.30;;;1.20;;
20090;SDS011;10205;49.678;6.560;2023-09-18T13:45:35;2.40;;;1.30;;
20090;SDS011;10205;49.678;6.560;2023-09-18T13:48:03;2.13;;;1.25;;
20090;SDS011;10205;49.678;6.560;2023-09-18T13:50:31;1.58;;;1.20;;
20090;SDS011;10205;49.678;6.560;2023-09-18T13:52:59;2.05;;;1.10;;
20090;SDS011;10205;49.678;6.560;2023-09-18T13:55:29;1.27;;;1.00;;
20090;SDS011;10205;49.678;6.560;2023-09-18T13:57:56;2.55;;;1.33;;
20090;SDS011;10205;49.678;6.560;2023-09-18T14:00:23;1.90;;;1.55;;
20090;SDS011;10205;49.678;6.560;2023-09-18T14:02:53;1.38;;;1.20;;
20090;SDS011;10205;49.678;6.560;2023-09-18T14:05:20;1.77;;;1.30;;
20090;SDS011;10205;49.678;6.560;2023-09-18T14:07:47;1.33;;;1.23;;
20090;SDS011;10205;49.678;6.560;2023-09-18T14:10:15;1.80;;;1.08;;
20090;SDS011;10205;49.678;6.560;2023-09-18T14:12:43;2.80;;;1.40;;
20090;SDS011;10205;49.678;6.560;2023-09-18T14:15:11;3.05;;;1.40;;
20090;SDS011;10205;49.678;6.560;2023-09-18T14:17:39;1.67;;;1.30;;
20090;SDS011;10205;49.678;6.560;2023-09-18T14:20:08;1.27;;;1.17;;
20090;SDS011;10205;49.678;6.560;2023-09-18T14:22:35;4.72;;;1.27;;
20090;SDS011;10205;49.678;6.560;2023-09-18T14:25:03;1.60;;;1.10;;
20090;SDS011;10205;49.678;6.560;2023-09-18T14:27:31;1.73;;;1.25;;
20090;SDS011;10205;49.678;6.560;2023-09-18T14:30:00;2.25;;;1.27;;
20090;SDS011;10205;49.678;6.560;2023-09-18T14:32:31;1.40;;;1.20;;
20090;SDS011;10205;49.678;6.560;2023-09-18T14:34:58;1.80;;;1.17;;
20090;SDS011;10205;49.678;6.560;2023-09-18T14:37:28;2.00;;;1.25;;
20090;SDS011;10205;49.678;6.560;2023-09-18T14:39:55;2.63;;;1.50;;
20090;SDS011;10205;49.678;6.560;2023-09-18T14:42:23;3.05;;;1.10;;
20090;SDS011;10205;49.678;6.560;2023-09-18T14:44:50;1.30;;;1.20;;
20090;SDS011;10205;49.678;6.560;2023-09-18T14:47:18;2.08;;;1.00;;
20090;SDS011;10205;49.678;6.560;2023-09-18T14:49:46;2.55;;;1.40;;
20090;SDS011;10205;49.678;6.560;2023-09-18T14:52:13;2.75;;;1.70;;
20090;SDS011;10205;49.678;6.560;2023-09-18T14:54:45;1.05;;;0.95;;
20090;SDS011;10205;49.678;6.560;2023-09-18T14:57:12;1.80;;;1.23;;
20090;SDS011;10205;49.678;6.560;2023-09-18T14:59:39;1.60;;;1.50;;